Trailer Estates, Florida
Current Conditions -  °F | °C
As of 10:53 AM on Thursday 23 Oct 2014 (Local Time) from KSRQ Reporting Station
Clear Clear  
Wind Chill: 76°   Ceiling: Unl
Heat Index: 76°   Visibility: 10mi
Dew Point: 60°   Wind: 13mph
Humidity: 58%   Direction: 80°E
Pressure: 29.97"   Gusts: NA
Location:  27.4879°N, 82.5789°W
Report Text: KSRQ 231453Z AUTO 08011KT 10SM CLR 24/16 A2997 RMK AO2 SLP147 T02440156 50008
Loading
Personal Weather Stations






























Interactive Weather Map
Tropical Storm Tracking
New forecast layout! Learn more

10-Day Weather Forecast

Advertisements
Track Severe Weather on mobile